Etusivu
METAR-TAF:

METAR-TAF

Lentoasemat :

Audubon County Airport

Audubon, Iowa, Yhdysvallat

Leveyspiiri: 41-42-04N, Pituuspiiri: 094-55-13W, korkeus merenpinnasta: 392 m

Tämänhetkinen sää

Tämä raportti tehtiin 11 minuuttia sitten, kello 08.55 UTC
tyyntä
Lämpötila 2°C
Kosteus 93%
Ilmanpaine 1012 hPa
Näkyvyys: 11.3 km
Hajanaisia pilviä 2400 ft:n korkeudessa
Hajanaisia pilviä 3000 ft:n korkeudessa
Pilvistä 3800 ft:n korkeudessa
heikkoa sadetta

METAR: KADU 170855Z AUTO 00000KT 7SM -RA SCT024 SCT030 OVC038 02/01 A2989 RMK AO2

Aika: 03:06 (09:06 UTC)


TAF: puuttuu

Säähavainnot ja -ennusteet yli 4000 lentoasemalta (METAR- ja TAF-raportit).

Käytössä olevat sääasemat on merkitty karttaan keltaisilla ja punaisilla pisteillä.

Aseta hiiri pisteen päälle nähdäksesi sääaseman nimen.

Klikkaa sitten nähdäksesi säähavainnot ja -ennusteet.

Kartan vaihtaminen: klikkaa mustalla rastilla varustettuja vihreitä pisteitä, niin voit zoomata sisään; viivalla varustettua vihreää pistettä, niin voit zoomata ulos tai vihreitä nuolia, niin pääset viereisille kartoille.


METAR-TAF: